createdAt,value
2018-12-17T00:00:04.862Z,1008.82
2018-12-17T00:01:04.815Z,1008.85
2018-12-17T00:02:04.773Z,1008.79
2018-12-17T00:03:04.757Z,1008.79
2018-12-17T00:04:04.686Z,1008.81
2018-12-17T00:05:04.636Z,1008.76
2018-12-17T00:06:04.589Z,1008.82
2018-12-17T00:07:04.551Z,1008.80
2018-12-17T00:08:04.534Z,1008.81
2018-12-17T00:09:04.461Z,1008.84
2018-12-17T00:10:04.414Z,1008.85
2018-12-17T00:11:04.363Z,1008.83
2018-12-17T00:12:04.316Z,1008.83
2018-12-17T00:13:04.269Z,1008.84
2018-12-17T00:14:04.246Z,1008.85
2018-12-17T00:15:04.184Z,1008.84
2018-12-17T00:16:04.140Z,1008.87
2018-12-17T00:17:05.208Z,1008.85
2018-12-17T00:18:04.047Z,1008.83
2018-12-17T00:19:04.021Z,1008.79
2018-12-17T00:20:03.952Z,1008.80
2018-12-17T00:21:03.912Z,1008.79
2018-12-17T00:22:03.867Z,1008.72
2018-12-17T00:23:03.819Z,1008.72
2018-12-17T00:24:03.799Z,1008.69
2018-12-17T00:25:03.725Z,1008.62
2018-12-17T00:26:03.678Z,1008.66
2018-12-17T00:27:03.640Z,1008.61
2018-12-17T00:28:08.142Z,1008.63
2018-12-17T00:29:03.566Z,1008.58
2018-12-17T00:30:03.498Z,1008.54
2018-12-17T00:31:03.457Z,1008.54
2018-12-17T00:32:03.411Z,1008.54
2018-12-17T00:33:03.367Z,1008.56
2018-12-17T00:34:03.340Z,1008.57
2018-12-17T00:35:03.269Z,1008.57
2018-12-17T00:36:03.221Z,1008.53
2018-12-17T00:37:03.183Z,1008.49
2018-12-17T00:38:03.184Z,1008.49
2018-12-17T00:39:03.085Z,1008.51
2018-12-17T00:40:03.038Z,1008.49
2018-12-17T00:41:02.997Z,1008.50
2018-12-17T00:42:02.950Z,1008.47
2018-12-17T00:43:02.912Z,1008.47
2018-12-17T00:44:02.889Z,1008.49
2018-12-17T00:45:02.819Z,1008.44
2018-12-17T00:46:02.774Z,1008.48
2018-12-17T00:47:02.719Z,1008.47
2018-12-17T00:48:02.674Z,1008.43
2018-12-17T00:49:02.658Z,1008.47
2018-12-17T00:50:02.584Z,1008.50
2018-12-17T00:51:02.543Z,1008.47
2018-12-17T00:52:02.497Z,1008.52
2018-12-17T00:53:02.445Z,1008.45
2018-12-17T00:54:02.400Z,1008.51
2018-12-17T00:55:02.382Z,1008.43
2018-12-17T00:56:02.315Z,1008.47
2018-12-17T00:57:02.270Z,1008.46
2018-12-17T00:58:02.225Z,1008.42
2018-12-17T00:59:02.178Z,1008.42
2018-12-17T01:00:02.148Z,1008.42
2018-12-17T01:01:02.105Z,1008.43
2018-12-17T01:02:02.034Z,1008.44
2018-12-17T01:03:01.997Z,1008.45
2018-12-17T01:04:01.949Z,1008.43
2018-12-17T01:05:01.904Z,1008.46
2018-12-17T01:06:01.878Z,1008.46
2018-12-17T01:07:01.808Z,1008.46
2018-12-17T01:08:01.759Z,1008.41
2018-12-17T01:09:01.719Z,1008.44
2018-12-17T01:10:01.673Z,1008.48
2018-12-17T01:11:01.643Z,1008.49
2018-12-17T01:12:01.574Z,1008.50
2018-12-17T01:13:01.527Z,1008.46
2018-12-17T01:14:01.552Z,1008.50
2018-12-17T01:15:01.445Z,1008.51
2018-12-17T01:16:01.418Z,1008.45
2018-12-17T01:17:01.354Z,1008.46
2018-12-17T01:18:01.307Z,1008.47
2018-12-17T01:19:01.254Z,1008.46
2018-12-17T01:20:01.206Z,1008.47
2018-12-17T01:21:01.186Z,1008.43
2018-12-17T01:22:01.139Z,1008.44
2018-12-17T01:23:01.076Z,1008.41
2018-12-17T01:24:01.031Z,1008.41
2018-12-17T01:25:00.978Z,1008.46
2018-12-17T01:26:00.932Z,1008.44
2018-12-17T01:27:00.915Z,1008.44
2018-12-17T01:28:00.846Z,1008.43
2018-12-17T01:29:00.803Z,1008.45
2018-12-17T01:30:00.759Z,1008.43
2018-12-17T01:31:00.705Z,1008.47
2018-12-17T01:32:00.681Z,1008.46
2018-12-17T01:33:00.612Z,1008.44
2018-12-17T01:34:00.563Z,1008.44
2018-12-17T01:35:00.548Z,1008.46
2018-12-17T01:36:00.480Z,1008.45
2018-12-17T01:37:00.457Z,1008.46
2018-12-17T01:38:00.391Z,1008.43
2018-12-17T01:39:00.338Z,1008.48
2018-12-17T01:40:00.290Z,1008.53
2018-12-17T01:41:00.255Z,1008.52
2018-12-17T01:42:00.232Z,1008.53
2018-12-17T01:43:00.155Z,1008.53
2018-12-17T01:44:00.107Z,1008.53
2018-12-17T01:45:00.066Z,1008.53
2018-12-17T01:46:00.015Z,1008.53
2018-12-17T01:46:59.978Z,1008.56
2018-12-17T01:47:59.953Z,1008.55
2018-12-17T01:48:59.884Z,1008.54
2018-12-17T01:49:59.872Z,1008.57
2018-12-17T01:50:59.787Z,1008.56
2018-12-17T01:51:59.741Z,1008.52
2018-12-17T01:52:59.695Z,1008.48
2018-12-17T01:53:59.645Z,1008.54
2018-12-17T01:54:59.610Z,1008.50
2018-12-17T01:55:59.587Z,1008.53
2018-12-17T01:56:59.511Z,1008.51
2018-12-17T01:57:59.488Z,1008.46
2018-12-17T01:58:59.425Z,1008.48
2018-12-17T01:59:59.379Z,1008.47
2018-12-17T02:00:59.355Z,1008.50
2018-12-17T02:01:59.290Z,1008.47
2018-12-17T02:02:59.235Z,1008.47
2018-12-17T02:03:59.190Z,1008.49
2018-12-17T02:04:59.166Z,1008.44
2018-12-17T02:05:59.166Z,1008.48
2018-12-17T02:06:59.056Z,1008.44
2018-12-17T02:07:59.033Z,1008.46
2018-12-17T02:08:59.051Z,1008.41
2018-12-17T02:09:58.921Z,1008.44
2018-12-17T02:10:58.867Z,1008.48
2018-12-17T02:11:58.845Z,1008.45
2018-12-17T02:12:58.783Z,1008.51
2018-12-17T02:13:58.759Z,1008.50
2018-12-17T02:14:58.686Z,1008.51
2018-12-17T02:15:58.635Z,1008.46
2018-12-17T02:16:58.589Z,1008.53
2018-12-17T02:17:58.546Z,1008.51
2018-12-17T02:18:58.529Z,1008.49
2018-12-17T02:19:58.459Z,1008.49
2018-12-17T02:20:58.411Z,1008.48
2018-12-17T02:21:58.396Z,1008.52
2018-12-17T02:22:58.314Z,1008.54
2018-12-17T02:23:58.269Z,1008.53
2018-12-17T02:24:58.224Z,1008.53
2018-12-17T02:25:58.175Z,1008.53
2018-12-17T02:26:58.141Z,1008.51
2018-12-17T02:27:58.122Z,1008.53
2018-12-17T02:28:58.066Z,1008.54
2018-12-17T02:29:57.992Z,1008.46
2018-12-17T02:30:57.956Z,1008.50
2018-12-17T02:31:57.908Z,1008.58
2018-12-17T02:32:57.862Z,1008.53
2018-12-17T02:33:57.842Z,1008.58
2018-12-17T02:34:57.765Z,1008.58
2018-12-17T02:35:57.721Z,1008.58
2018-12-17T02:36:57.672Z,1008.62
2018-12-17T02:37:57.652Z,1008.61
2018-12-17T02:38:57.587Z,1008.65
2018-12-17T02:39:57.542Z,1008.60
2018-12-17T02:40:57.498Z,1008.62
2018-12-17T02:41:57.450Z,1008.58
2018-12-17T02:42:57.401Z,1008.60
2018-12-17T02:43:57.390Z,1008.59
2018-12-17T02:44:57.336Z,1008.57
2018-12-17T02:45:57.265Z,1008.60
2018-12-17T02:46:57.214Z,1008.61
2018-12-17T02:47:57.168Z,1008.62
2018-12-17T02:48:57.150Z,1008.57
2018-12-17T02:49:57.074Z,1008.62
2018-12-17T02:50:57.036Z,1008.61
2018-12-17T02:51:56.990Z,1008.64
2018-12-17T02:52:56.945Z,1008.61
2018-12-17T02:53:56.902Z,1008.66
2018-12-17T02:54:56.882Z,1008.69
2018-12-17T02:55:56.801Z,1008.73
2018-12-17T02:56:56.764Z,1008.75
2018-12-17T02:57:56.706Z,1008.75
2018-12-17T02:58:56.671Z,1008.75
2018-12-17T02:59:56.622Z,1008.76
2018-12-17T03:00:56.594Z,1008.75
2018-12-17T03:01:56.528Z,1008.77
2018-12-17T03:02:56.486Z,1008.79
2018-12-17T03:03:56.442Z,1008.85
2018-12-17T03:04:56.397Z,1008.81
2018-12-17T03:05:56.372Z,1008.80
2018-12-17T03:06:56.296Z,1008.81
2018-12-17T03:07:56.251Z,1008.78
2018-12-17T03:08:56.203Z,1008.82
2018-12-17T03:09:56.158Z,1008.84
2018-12-17T03:10:56.120Z,1008.87
2018-12-17T03:11:56.098Z,1008.84
2018-12-17T03:12:56.033Z,1008.86
2018-12-17T03:13:55.981Z,1008.88
2018-12-17T03:14:55.928Z,1008.84
2018-12-17T03:15:55.909Z,1008.87
2018-12-17T03:16:55.856Z,1008.84
2018-12-17T03:17:55.799Z,1008.85
2018-12-17T03:18:55.747Z,1008.87
2018-12-17T03:19:55.700Z,1008.84
2018-12-17T03:20:55.656Z,1008.92
2018-12-17T03:21:55.636Z,1008.86
2018-12-17T03:22:55.569Z,1008.88
2018-12-17T03:23:55.524Z,1008.89
2018-12-17T03:24:55.485Z,1008.88
2018-12-17T03:25:55.434Z,1008.89
2018-12-17T03:26:55.380Z,1008.85
2018-12-17T03:27:55.356Z,1008.83
2018-12-17T03:28:55.290Z,1008.84
2018-12-17T03:29:55.243Z,1008.87
2018-12-17T03:30:55.202Z,1008.88
2018-12-17T03:31:55.183Z,1008.91
2018-12-17T03:32:55.136Z,1008.89
2018-12-17T03:33:55.059Z,1008.91
2018-12-17T03:34:55.022Z,1008.85
2018-12-17T03:35:54.976Z,1008.85
2018-12-17T03:36:54.953Z,1008.82
2018-12-17T03:37:54.908Z,1008.82
2018-12-17T03:38:54.833Z,1008.83
2018-12-17T03:39:54.785Z,1008.82
2018-12-17T03:40:54.816Z,1008.83
2018-12-17T03:41:54.691Z,1008.86
2018-12-17T03:42:54.654Z,1008.87
2018-12-17T03:43:54.632Z,1008.86
2018-12-17T03:44:54.565Z,1008.90
2018-12-17T03:45:54.517Z,1008.84
2018-12-17T03:46:54.468Z,1008.88
2018-12-17T03:47:54.443Z,1008.92
2018-12-17T03:48:54.407Z,1008.90
2018-12-17T03:49:54.331Z,1008.87
2018-12-17T03:50:54.284Z,1008.88
2018-12-17T03:51:54.235Z,1008.89
2018-12-17T03:52:54.217Z,1008.87
2018-12-17T03:53:54.147Z,1008.87
2018-12-17T03:54:54.110Z,1008.89
2018-12-17T03:55:54.060Z,1008.91
2018-12-17T03:56:54.014Z,1008.91
2018-12-17T03:57:53.971Z,1008.92
2018-12-17T03:58:59.238Z,1008.92
2018-12-17T03:59:53.874Z,1008.92
2018-12-17T04:00:53.825Z,1008.95
2018-12-17T04:01:53.779Z,1008.93
2018-12-17T04:02:53.764Z,1008.96
2018-12-17T04:03:53.693Z,1008.96
2018-12-17T04:04:53.639Z,1008.98
2018-12-17T04:05:53.594Z,1008.89
2018-12-17T04:06:53.556Z,1008.94
2018-12-17T04:07:53.543Z,1008.92
2018-12-17T04:08:53.492Z,1008.95
2018-12-17T04:09:53.426Z,1008.93
2018-12-17T04:10:53.369Z,1008.93
2018-12-17T04:11:53.322Z,1008.95
2018-12-17T04:12:53.275Z,1008.98
2018-12-17T04:13:53.234Z,1008.96
2018-12-17T04:14:53.214Z,1009.00
2018-12-17T04:15:53.144Z,1009.05
2018-12-17T04:16:53.122Z,1009.05
2018-12-17T04:17:53.053Z,1009.04
2018-12-17T04:18:53.023Z,1009.01
2018-12-17T04:19:52.955Z,1009.05
2018-12-17T04:20:52.918Z,1009.02
2018-12-17T04:21:53.038Z,1008.99
2018-12-17T04:22:52.817Z,1009.00
2018-12-17T04:23:52.810Z,1009.01
2018-12-17T04:24:52.727Z,1009.03
2018-12-17T04:25:52.676Z,1009.04
2018-12-17T04:26:52.638Z,1009.05
2018-12-17T04:27:52.592Z,1009.04
2018-12-17T04:28:52.546Z,1009.05
2018-12-17T04:29:52.530Z,1009.06
2018-12-17T04:30:52.450Z,1009.07
2018-12-17T04:31:52.404Z,1009.02
2018-12-17T04:32:52.357Z,1009.04
2018-12-17T04:33:52.318Z,1009.02
2018-12-17T04:34:52.276Z,1009.04
2018-12-17T04:35:52.250Z,1009.03
2018-12-17T04:36:52.176Z,1009.03
2018-12-17T04:37:52.129Z,1009.08
2018-12-17T04:38:52.093Z,1009.08
2018-12-17T04:39:52.046Z,1009.03
2018-12-17T04:40:52.021Z,1009.07
2018-12-17T04:41:51.956Z,1009.11
2018-12-17T04:42:51.901Z,1009.10
2018-12-17T04:43:51.856Z,1009.13
2018-12-17T04:44:51.809Z,1009.14
2018-12-17T04:45:51.790Z,1009.14
2018-12-17T04:46:51.726Z,1009.16
2018-12-17T04:47:51.689Z,1009.20
2018-12-17T04:48:51.634Z,1009.18
2018-12-17T04:49:51.588Z,1009.24
2018-12-17T04:50:51.590Z,1009.21
2018-12-17T04:51:51.512Z,1009.20
2018-12-17T04:52:51.453Z,1009.15
2018-12-17T04:53:51.405Z,1009.20
2018-12-17T04:54:51.353Z,1009.22
2018-12-17T04:55:51.305Z,1009.21
2018-12-17T04:56:51.283Z,1009.22
2018-12-17T04:57:51.224Z,1009.33
2018-12-17T04:58:51.176Z,1009.17
2018-12-17T04:59:51.131Z,1009.20
2018-12-17T05:00:51.107Z,1009.31
2018-12-17T05:01:51.069Z,1009.31
2018-12-17T05:02:50.987Z,1009.26
2018-12-17T05:03:50.946Z,1009.29
2018-12-17T05:04:50.897Z,1009.33
2018-12-17T05:05:50.873Z,1009.36
2018-12-17T05:06:50.838Z,1009.32
2018-12-17T05:07:50.766Z,1009.31
2018-12-17T05:08:50.715Z,1009.34
2018-12-17T05:09:50.670Z,1009.46
2018-12-17T05:10:50.630Z,1009.37
2018-12-17T05:11:50.586Z,1009.37
2018-12-17T05:12:50.566Z,1009.38
2018-12-17T05:13:50.495Z,1009.37
2018-12-17T05:14:50.440Z,1009.38
2018-12-17T05:15:50.396Z,1009.36
2018-12-17T05:16:50.352Z,1009.46
2018-12-17T05:17:50.304Z,1009.42
2018-12-17T05:18:50.290Z,1009.36
2018-12-17T05:19:50.230Z,1009.39
2018-12-17T05:20:50.178Z,1009.36
2018-12-17T05:21:50.130Z,1009.45
2018-12-17T05:22:50.085Z,1009.39
2018-12-17T05:23:50.065Z,1009.34
2018-12-17T05:24:49.996Z,1009.41
2018-12-17T05:25:49.953Z,1009.37
2018-12-17T05:26:49.896Z,1009.36
2018-12-17T05:27:49.851Z,1009.40
2018-12-17T05:28:49.803Z,1009.41
2018-12-17T05:29:49.782Z,1009.41
2018-12-17T05:30:49.721Z,1009.46
2018-12-17T05:31:49.678Z,1009.43
2018-12-17T05:32:49.632Z,1009.45
2018-12-17T05:33:49.586Z,1009.46
2018-12-17T05:34:49.556Z,1009.44
2018-12-17T05:35:49.492Z,1009.50
2018-12-17T05:36:49.440Z,1009.51
2018-12-17T05:37:49.424Z,1009.47
2018-12-17T05:38:49.357Z,1009.52
2018-12-17T05:39:49.340Z,1009.53
2018-12-17T05:40:49.258Z,1009.50
2018-12-17T05:41:49.215Z,1009.55
2018-12-17T05:42:49.178Z,1009.57
2018-12-17T05:43:49.133Z,1009.57
2018-12-17T05:44:49.086Z,1009.59
2018-12-17T05:45:49.063Z,1009.59
2018-12-17T05:46:49.015Z,1009.69
2018-12-17T05:47:48.944Z,1009.66
2018-12-17T05:48:48.898Z,1009.70
2018-12-17T05:49:48.852Z,1009.61
2018-12-17T05:50:48.814Z,1009.70
2018-12-17T05:51:48.771Z,1009.65
2018-12-17T05:52:48.749Z,1009.70
2018-12-17T05:53:48.675Z,1009.73
2018-12-17T05:54:48.624Z,1009.74
2018-12-17T05:55:48.582Z,1009.70
2018-12-17T05:56:48.541Z,1009.75
2018-12-17T05:57:48.517Z,1009.67
2018-12-17T05:58:48.449Z,1009.64
2018-12-17T05:59:48.399Z,1009.69
2018-12-17T06:00:48.351Z,1009.64
2018-12-17T06:01:48.338Z,1009.74
2018-12-17T06:02:48.295Z,1009.72
2018-12-17T06:03:48.223Z,1009.75
2018-12-17T06:04:48.184Z,1009.76
2018-12-17T06:05:48.140Z,1009.76
2018-12-17T06:06:48.080Z,1009.74
2018-12-17T06:07:48.037Z,1009.83
2018-12-17T06:08:48.014Z,1009.83
2018-12-17T06:09:47.947Z,1009.74
2018-12-17T06:10:47.907Z,1009.81
2018-12-17T06:11:47.861Z,1009.88
2018-12-17T06:12:47.813Z,1009.83
2018-12-17T06:13:47.789Z,1009.82
2018-12-17T06:14:47.726Z,1009.79
2018-12-17T06:15:47.686Z,1009.84
2018-12-17T06:16:47.637Z,1009.84
2018-12-17T06:17:47.614Z,1009.86
2018-12-17T06:18:47.538Z,1009.86
2018-12-17T06:19:47.492Z,1009.90
2018-12-17T06:20:47.448Z,1009.86
2018-12-17T06:21:47.404Z,1009.94
2018-12-17T06:22:47.391Z,1009.95
2018-12-17T06:23:47.397Z,1009.91
2018-12-17T06:24:47.275Z,1009.90
2018-12-17T06:25:47.227Z,1009.93
2018-12-17T06:26:47.176Z,1009.91
2018-12-17T06:27:47.156Z,1009.91
2018-12-17T06:28:47.091Z,1009.95
2018-12-17T06:29:47.046Z,1009.94
2018-12-17T06:30:46.995Z,1009.94
2018-12-17T06:31:46.948Z,1009.97
2018-12-17T06:32:46.906Z,1010.01
2018-12-17T06:33:46.882Z,1010.01
2018-12-17T06:34:46.842Z,1010.02
2018-12-17T06:35:46.777Z,1010.07
2018-12-17T06:36:46.732Z,1010.05
2018-12-17T06:37:46.683Z,1010.08
2018-12-17T06:38:46.634Z,1010.05
2018-12-17T06:39:46.617Z,1010.02
2018-12-17T06:40:46.542Z,1010.02
2018-12-17T06:41:46.499Z,1010.08
2018-12-17T06:42:46.459Z,1010.13
2018-12-17T06:43:46.482Z,1010.06
2018-12-17T06:44:46.362Z,1010.08
2018-12-17T06:45:46.343Z,1010.12
2018-12-17T06:46:46.274Z,1010.14
2018-12-17T06:47:46.230Z,1010.14
2018-12-17T06:48:46.184Z,1010.15
2018-12-17T06:49:46.139Z,1010.12
2018-12-17T06:50:46.088Z,1010.13
2018-12-17T06:51:46.065Z,1010.15
2018-12-17T06:52:45.998Z,1010.15
2018-12-17T06:53:45.953Z,1010.16
2018-12-17T06:54:45.933Z,1010.18
2018-12-17T06:55:45.869Z,1010.18
2018-12-17T06:56:45.823Z,1010.23
2018-12-17T06:57:45.802Z,1010.19
2018-12-17T06:58:45.724Z,1010.20
2018-12-17T06:59:45.683Z,1010.21
2018-12-17T07:00:45.642Z,1010.25
2018-12-17T07:01:45.597Z,1010.27
2018-12-17T07:02:45.568Z,1010.21
2018-12-17T07:03:45.501Z,1010.25
2018-12-17T07:04:45.453Z,1010.27
2018-12-17T07:05:45.406Z,1010.31
2018-12-17T07:06:45.368Z,1010.29
2018-12-17T07:07:45.323Z,1010.33
2018-12-17T07:08:45.298Z,1010.38
2018-12-17T07:09:45.230Z,1010.34
2018-12-17T07:10:45.181Z,1010.38
2018-12-17T07:11:45.136Z,1010.37
2018-12-17T07:12:45.100Z,1010.43
2018-12-17T07:13:45.043Z,1010.42
2018-12-17T07:14:45.028Z,1010.44
2018-12-17T07:15:44.969Z,1010.43
2018-12-17T07:16:44.906Z,1010.48
2018-12-17T07:17:44.864Z,1010.48
2018-12-17T07:18:44.823Z,1010.54
2018-12-17T07:19:44.801Z,1010.52
2018-12-17T07:20:44.737Z,1010.56
2018-12-17T07:21:44.690Z,1010.59
2018-12-17T07:22:44.636Z,1010.56
2018-12-17T07:23:44.588Z,1010.54
2018-12-17T07:24:44.572Z,1010.51
2018-12-17T07:25:44.499Z,1010.56
2018-12-17T07:26:44.482Z,1010.53
2018-12-17T07:27:44.415Z,1010.54
2018-12-17T07:28:44.373Z,1010.55
2018-12-17T07:29:49.723Z,1010.60
2018-12-17T07:30:44.271Z,1010.63
2018-12-17T07:31:44.256Z,1010.64
2018-12-17T07:32:44.191Z,1010.60
2018-12-17T07:33:44.142Z,1010.65
2018-12-17T07:34:44.091Z,1010.70
2018-12-17T07:35:44.047Z,1010.71
2018-12-17T07:36:44.001Z,1010.71
2018-12-17T07:37:43.978Z,1010.69
2018-12-17T07:38:43.915Z,1010.75
2018-12-17T07:39:43.871Z,1010.75
2018-12-17T07:40:43.826Z,1010.76
2018-12-17T07:41:43.781Z,1010.74
2018-12-17T07:42:43.754Z,1010.76
2018-12-17T07:43:43.686Z,1010.78
2018-12-17T07:44:43.645Z,1010.80
2018-12-17T07:45:43.674Z,1010.83
2018-12-17T07:46:43.563Z,1010.78
2018-12-17T07:47:43.541Z,1010.84
2018-12-17T07:48:43.459Z,1010.85
2018-12-17T07:49:43.411Z,1010.83
2018-12-17T07:50:43.375Z,1010.82
2018-12-17T07:51:43.330Z,1010.87
2018-12-17T07:52:43.312Z,1010.85
2018-12-17T07:53:43.238Z,1010.85
2018-12-17T07:54:43.186Z,1010.90
2018-12-17T07:55:43.154Z,1010.89
2018-12-17T07:56:43.099Z,1010.83
2018-12-17T07:57:43.076Z,1010.88
2018-12-17T07:58:43.012Z,1010.91
2018-12-17T07:59:42.975Z,1010.88
2018-12-17T08:00:42.973Z,1010.93
2018-12-17T08:01:42.879Z,1010.93
2018-12-17T08:02:42.826Z,1010.92
2018-12-17T08:03:42.801Z,1010.99
2018-12-17T08:04:42.747Z,1011.01
2018-12-17T08:05:42.696Z,1010.98
2018-12-17T08:06:42.645Z,1011.06
2018-12-17T08:07:44.181Z,1011.04
2018-12-17T08:08:42.587Z,1011.04
2018-12-17T08:09:42.511Z,1011.04
2018-12-17T08:10:42.468Z,1011.05
2018-12-17T08:11:42.436Z,1011.09
2018-12-17T08:12:42.382Z,1011.08
2018-12-17T08:13:42.769Z,1011.06
2018-12-17T08:14:42.305Z,1011.07
2018-12-17T08:15:42.240Z,1011.06
2018-12-17T08:16:42.196Z,1011.06
2018-12-17T08:17:42.146Z,1011.12
2018-12-17T08:18:42.109Z,1011.12
2018-12-17T08:19:42.094Z,1011.19
2018-12-17T08:20:42.012Z,1011.22
2018-12-17T08:21:41.967Z,1011.19
2018-12-17T08:22:41.931Z,1011.20
2018-12-17T08:23:41.884Z,1011.18
2018-12-17T08:24:41.839Z,1011.21
2018-12-17T08:25:41.820Z,1011.20
2018-12-17T08:26:42.422Z,1011.24
2018-12-17T08:27:41.695Z,1011.23
2018-12-17T08:28:41.653Z,1011.34
2018-12-17T08:29:41.610Z,1011.35
2018-12-17T08:30:41.568Z,1011.38
2018-12-17T08:31:41.551Z,1011.37
2018-12-17T08:32:41.479Z,1011.41
2018-12-17T08:33:41.435Z,1011.44
2018-12-17T08:34:41.382Z,1011.38
2018-12-17T08:35:41.336Z,1011.38
2018-12-17T08:36:41.301Z,1011.43
2018-12-17T08:37:41.277Z,1011.45
2018-12-17T08:38:41.200Z,1011.44
2018-12-17T08:39:41.179Z,1011.48
2018-12-17T08:40:41.113Z,1011.47
2018-12-17T08:41:41.070Z,1011.49
2018-12-17T08:42:41.030Z,1011.48
2018-12-17T08:43:40.983Z,1011.48
2018-12-17T08:44:40.970Z,1011.52
2018-12-17T08:45:40.920Z,1011.50
2018-12-17T08:46:40.841Z,1011.45
2018-12-17T08:47:40.798Z,1011.47
2018-12-17T08:48:40.750Z,1011.47
2018-12-17T08:49:40.704Z,1011.54
2018-12-17T08:50:40.666Z,1011.52
2018-12-17T08:51:40.645Z,1011.51
2018-12-17T08:52:40.572Z,1011.49
2018-12-17T08:53:40.527Z,1011.54
2018-12-17T08:54:40.513Z,1011.56
2018-12-17T08:55:40.465Z,1011.62
2018-12-17T08:56:40.422Z,1011.60
2018-12-17T08:57:40.357Z,1011.61
2018-12-17T08:58:40.302Z,1011.65
2018-12-17T08:59:40.256Z,1011.63
2018-12-17T09:00:40.224Z,1011.66
2018-12-17T09:01:40.195Z,1011.64
2018-12-17T09:02:40.124Z,1011.67
2018-12-17T09:03:40.077Z,1011.69
2018-12-17T09:04:40.031Z,1011.67
2018-12-17T09:05:40.013Z,1011.71
2018-12-17T09:06:39.947Z,1011.69
2018-12-17T09:07:39.903Z,1011.74
2018-12-17T09:08:39.851Z,1011.72
2018-12-17T09:09:39.809Z,1011.72
2018-12-17T09:10:39.772Z,1011.83
2018-12-17T09:11:39.749Z,1011.81
2018-12-17T09:12:39.682Z,1011.86
2018-12-17T09:13:39.637Z,1011.84
2018-12-17T09:14:39.580Z,1011.82
2018-12-17T09:15:39.565Z,1011.85
2018-12-17T09:16:39.492Z,1011.95
2018-12-17T09:17:39.448Z,1011.94
2018-12-17T09:18:39.409Z,1011.89
2018-12-17T09:19:39.366Z,1011.94
2018-12-17T09:20:39.319Z,1011.96
2018-12-17T09:21:39.305Z,1011.99
2018-12-17T09:22:39.221Z,1011.98
2018-12-17T09:23:39.178Z,1011.96
2018-12-17T09:24:39.143Z,1011.98
2018-12-17T09:25:39.093Z,1011.99
2018-12-17T09:26:39.068Z,1012.01
2018-12-17T09:27:39.007Z,1012.08
2018-12-17T09:28:38.955Z,1012.04
2018-12-17T09:29:38.909Z,1012.10
2018-12-17T09:32:10.907Z,1012.10
2018-12-17T09:33:10.830Z,1012.10
2018-12-17T09:34:10.818Z,1012.10
2018-12-17T09:35:10.758Z,1012.13
2018-12-17T09:36:10.700Z,1012.12
2018-12-17T09:37:10.689Z,1012.12
2018-12-17T09:38:10.664Z,1012.11
2018-12-17T09:39:10.557Z,1012.16
2018-12-17T09:40:10.510Z,1012.16
2018-12-17T09:41:10.510Z,1012.20
2018-12-17T09:42:10.455Z,1012.19
2018-12-17T09:43:10.390Z,1012.18
2018-12-17T09:44:10.364Z,1012.21
2018-12-17T09:45:10.309Z,1012.18
2018-12-17T09:46:10.255Z,1012.18
2018-12-17T09:47:10.239Z,1012.22
2018-12-17T09:48:10.188Z,1012.25
2018-12-17T09:49:10.125Z,1012.22
2018-12-17T09:50:10.077Z,1012.23
2018-12-17T09:51:10.024Z,1012.27
2018-12-17T09:52:10.013Z,1012.24
2018-12-17T09:53:09.945Z,1012.35
2018-12-17T09:54:09.984Z,1012.29
2018-12-17T09:55:09.888Z,1012.33
2018-12-17T09:56:09.826Z,1012.32
2018-12-17T09:57:09.780Z,1012.31
2018-12-17T09:58:09.761Z,1012.27
2018-12-17T09:59:09.671Z,1012.31
2018-12-17T10:00:09.628Z,1012.32
2018-12-17T10:01:09.601Z,1012.32
2018-12-17T10:02:09.552Z,1012.34
2018-12-17T10:03:09.559Z,1012.31
2018-12-17T10:04:09.457Z,1012.32
2018-12-17T10:05:09.418Z,1012.34
2018-12-17T10:06:09.373Z,1012.28
2018-12-17T10:07:09.330Z,1012.32
2018-12-17T10:08:09.282Z,1012.37
2018-12-17T10:09:09.276Z,1012.34
2018-12-17T10:10:09.198Z,1012.33
2018-12-17T10:11:09.153Z,1012.37
2018-12-17T10:12:09.101Z,1012.37
2018-12-17T10:13:09.093Z,1012.33
2018-12-17T10:14:09.055Z,1012.34
2018-12-17T10:15:08.974Z,1012.35
2018-12-17T10:16:08.944Z,1012.34
2018-12-17T10:17:08.873Z,1012.30
2018-12-17T10:18:08.843Z,1012.28
2018-12-17T10:19:08.855Z,1012.28
2018-12-17T10:20:08.752Z,1012.29
2018-12-17T10:21:08.698Z,1012.30
2018-12-17T10:22:08.648Z,1012.24
2018-12-17T10:23:08.623Z,1012.29
2018-12-17T10:24:08.596Z,1012.34
2018-12-17T10:25:08.546Z,1012.34
2018-12-17T10:26:08.489Z,1012.37
2018-12-17T10:27:08.444Z,1012.38
2018-12-17T10:28:08.398Z,1012.36
2018-12-17T10:29:08.393Z,1012.35
2018-12-17T10:30:08.330Z,1012.36
2018-12-17T10:31:08.249Z,1012.34
2018-12-17T10:32:08.226Z,1012.30
2018-12-17T10:33:08.147Z,1012.29
2018-12-17T10:34:08.143Z,1012.32
2018-12-17T10:35:08.083Z,1012.32
2018-12-17T10:36:08.015Z,1012.34
2018-12-17T10:37:07.971Z,1012.36
2018-12-17T10:38:07.936Z,1012.34
2018-12-17T10:39:07.913Z,1012.41
2018-12-17T10:40:17.609Z,1012.38
2018-12-17T10:41:17.120Z,1012.41
2018-12-17T10:42:17.147Z,1012.42
2018-12-17T10:43:07.712Z,1012.39
2018-12-17T10:44:07.659Z,1012.45
2018-12-17T10:45:07.668Z,1012.42
2018-12-17T10:46:07.579Z,1012.44
2018-12-17T10:47:07.536Z,1012.41
2018-12-17T10:48:07.481Z,1012.42
2018-12-17T10:49:07.450Z,1012.45
2018-12-17T10:50:07.415Z,1012.48
2018-12-17T10:51:07.385Z,1012.50
2018-12-17T10:52:07.313Z,1012.49
2018-12-17T10:53:07.267Z,1012.47
2018-12-17T10:54:07.229Z,1012.48
2018-12-17T10:55:07.196Z,1012.50
2018-12-17T10:56:07.154Z,1012.50
2018-12-17T10:57:07.112Z,1012.47
2018-12-17T10:58:07.057Z,1012.52
2018-12-17T10:59:07.017Z,1012.52
2018-12-17T11:00:06.982Z,1012.51
2018-12-17T11:01:06.946Z,1012.47
2018-12-17T11:02:06.867Z,1012.44
2018-12-17T11:03:06.822Z,1012.46
2018-12-17T11:04:06.787Z,1012.50
2018-12-17T11:05:06.783Z,1012.47
2018-12-17T11:06:06.713Z,1012.48
2018-12-17T11:07:06.656Z,1012.51
2018-12-17T11:08:06.606Z,1012.49
2018-12-17T11:09:06.567Z,1012.55
2018-12-17T11:10:06.526Z,1012.55
2018-12-17T11:11:06.491Z,1012.59
2018-12-17T11:12:06.431Z,1012.55
2018-12-17T11:13:06.399Z,1012.59
2018-12-17T11:14:06.357Z,1012.60
2018-12-17T11:15:06.306Z,1012.61
2018-12-17T11:16:06.287Z,1012.60
2018-12-17T11:17:06.208Z,1012.61
2018-12-17T11:18:06.176Z,1012.57
2018-12-17T11:19:06.128Z,1012.59
2018-12-17T11:20:06.073Z,1012.59
2018-12-17T11:21:06.056Z,1012.59
2018-12-17T11:22:05.992Z,1012.60
2018-12-17T11:23:05.943Z,1012.63
2018-12-17T11:24:05.906Z,1012.66
2018-12-17T11:25:05.864Z,1012.68
2018-12-17T11:26:05.847Z,1012.70
2018-12-17T11:27:05.778Z,1012.69
2018-12-17T11:28:05.731Z,1012.68
2018-12-17T11:29:05.690Z,1012.69
2018-12-17T11:30:05.657Z,1012.66
2018-12-17T11:31:05.633Z,1012.63
2018-12-17T11:32:11.463Z,1012.62
2018-12-17T11:33:05.523Z,1012.63
2018-12-17T11:34:05.468Z,1012.70
2018-12-17T11:35:05.429Z,1012.62
2018-12-17T11:36:05.395Z,1012.64
2018-12-17T11:37:05.369Z,1012.68
2018-12-17T11:38:05.306Z,1012.70
2018-12-17T11:39:05.272Z,1012.68
2018-12-17T11:40:05.214Z,1012.65
2018-12-17T11:41:05.168Z,1012.63
2018-12-17T11:42:05.151Z,1012.60
2018-12-17T11:43:05.093Z,1012.59
2018-12-17T11:44:05.046Z,1012.66
2018-12-17T11:45:05.024Z,1012.63
2018-12-17T11:46:05.005Z,1012.68
2018-12-17T11:47:04.968Z,1012.72
2018-12-17T11:48:04.869Z,1012.71
2018-12-17T11:49:04.826Z,1012.70
2018-12-17T11:50:04.792Z,1012.73
2018-12-17T11:51:04.752Z,1012.69
2018-12-17T11:52:04.731Z,1012.68
2018-12-17T11:53:04.681Z,1012.75
2018-12-17T11:54:04.610Z,1012.71
2018-12-17T11:55:04.568Z,1012.66
2018-12-17T11:56:04.538Z,1012.67
2018-12-17T11:57:04.493Z,1012.71
2018-12-17T11:58:04.477Z,1012.70
2018-12-17T11:59:04.404Z,1012.74
2018-12-17T12:00:04.352Z,1012.75
2018-12-17T12:01:04.323Z,1012.80
2018-12-17T12:02:04.282Z,1012.82
2018-12-17T12:03:04.237Z,1012.78
2018-12-17T12:04:04.234Z,1012.86
2018-12-17T12:05:04.162Z,1012.87
2018-12-17T12:06:04.133Z,1012.87